Time;durP1;ratioP1;P1;durP2;ratioP2;P2;SDS_P1;SDS_P2;PMS_P1;PMS_P2;Temp;Humidity;BMP_temperature;BMP_pressure;BME280_temperature;BME280_humidity;BME280_pressure;Samples;Min_cycle;Max_cycle;Signal;HPM_P1;HPM_P2
2022/03/10 00:01:48;;;;;;;22.47;16.00;;;2.60;99.90;;;;;;5051167;28;20454;-70
2022/03/10 00:04:15;;;;;;;21.07;15.63;;;2.70;99.90;;;;;;5050985;28;20480;-71
2022/03/10 00:06:42;;;;;;;22.80;17.50;;;2.70;99.90;;;;;;5050368;28;20476;-71
2022/03/10 00:09:09;;;;;;;22.30;15.30;;;2.70;99.90;;;;;;5050171;28;20454;-73
2022/03/10 00:11:36;;;;;;;19.90;15.20;;;2.60;99.90;;;;;;5050986;28;20457;-71
2022/03/10 00:14:03;;;;;;;18.97;15.00;;;2.70;99.90;;;;;;5050532;28;20968;-72
2022/03/10 00:16:31;;;;;;;21.00;15.67;;;2.80;99.90;;;;;;5050777;28;20608;-73
2022/03/10 00:18:59;;;;;;;21.23;15.70;;;2.80;99.90;;;;;;5051007;28;20458;-71
2022/03/10 00:21:26;;;;;;;19.37;15.27;;;2.50;99.90;;;;;;5050434;28;20938;-73
2022/03/10 00:23:53;;;;;;;21.43;15.70;;;2.50;99.90;;;;;;5050432;28;20457;-74
2022/03/10 00:26:20;;;;;;;21.97;15.73;;;2.60;99.90;;;;;;5050344;28;20523;-70
2022/03/10 00:28:47;;;;;;;25.77;17.47;;;2.60;99.90;;;;;;5050450;28;20458;-72
2022/03/10 00:31:14;;;;;;;23.00;16.53;;;2.70;99.90;;;;;;5050254;28;20461;-72
2022/03/10 00:33:41;;;;;;;22.67;16.53;;;2.70;99.90;;;;;;5049954;28;20993;-73
2022/03/10 00:36:10;;;;;;;20.30;16.23;;;2.90;99.90;;;;;;5050239;28;20466;-72
2022/03/10 00:38:37;;;;;;;21.53;16.40;;;3.00;99.90;;;;;;5050382;28;20503;-72
2022/03/10 00:41:04;;;;;;;21.13;15.77;;;3.00;99.90;;;;;;5050276;28;20510;-72
2022/03/10 00:43:31;;;;;;;17.73;14.70;;;2.90;99.90;;;;;;5050346;28;20938;-71
2022/03/10 00:45:58;;;;;;;22.50;15.60;;;2.90;99.90;;;;;;5050286;28;20481;-73
2022/03/10 00:48:25;;;;;;;19.30;15.30;;;3.00;99.90;;;;;;5050196;28;20457;-71
2022/03/10 00:50:52;;;;;;;26.27;18.07;;;2.80;99.90;;;;;;5050061;28;20457;-72
2022/03/10 00:53:21;;;;;;;20.40;16.23;;;2.70;99.90;;;;;;5049923;28;20445;-72
2022/03/10 00:55:48;;;;;;;24.27;15.83;;;2.70;99.90;;;;;;5049911;28;20982;-73
2022/03/10 00:58:15;;;;;;;23.30;15.50;;;2.60;99.90;;;;;;5050155;28;20596;-71
2022/03/10 01:00:43;;;;;;;24.63;15.70;;;2.30;99.90;;;;;;5049608;28;20465;-73
2022/03/10 01:03:10;;;;;;;21.83;17.00;;;2.20;99.90;;;;;;5050087;28;20551;-72
2022/03/10 01:05:37;;;;;;;22.73;16.70;;;2.40;99.90;;;;;;5049869;28;20454;-72
2022/03/10 01:08:05;;;;;;;23.90;17.37;;;2.30;99.90;;;;;;5050390;28;20454;-73
2022/03/10 01:10:33;;;;;;;31.47;18.40;;;2.30;99.90;;;;;;5049631;28;20469;-72
2022/03/10 01:13:00;;;;;;;20.20;16.37;;;2.30;99.90;;;;;;5050147;28;20454;-73
2022/03/10 01:15:29;;;;;;;24.87;15.60;;;2.30;99.90;;;;;;5049680;28;20527;-73
2022/03/10 01:17:56;;;;;;;21.90;16.77;;;2.30;99.90;;;;;;5049648;28;20489;-71
2022/03/10 01:20:26;;;;;;;25.33;17.67;;;2.20;99.90;;;;;;5049713;28;20450;-71
2022/03/10 01:22:53;;;;;;;24.90;18.03;;;2.40;99.90;;;;;;5049930;28;20466;-70
2022/03/10 01:25:20;;;;;;;22.10;16.53;;;2.60;99.90;;;;;;5049918;28;20480;-72
2022/03/10 01:27:49;;;;;;;24.93;17.70;;;2.60;99.90;;;;;;5049772;28;20478;-73
2022/03/10 01:30:17;;;;;;;24.17;16.53;;;2.60;99.90;;;;;;5048400;28;20473;-70
2022/03/10 01:32:45;;;;;;;23.23;17.20;;;2.60;99.90;;;;;;5049387;28;20489;-72
2022/03/10 01:35:13;;;;;;;22.13;18.20;;;2.60;99.90;;;;;;5049814;28;20481;-73
2022/03/10 01:37:40;;;;;;;22.03;15.80;;;2.70;99.90;;;;;;5049647;28;20516;-74
2022/03/10 01:40:09;;;;;;;22.90;17.33;;;2.90;99.90;;;;;;5049725;28;20461;-72
2022/03/10 01:42:36;;;;;;;23.53;16.93;;;2.80;99.90;;;;;;5049645;28;21205;-72
2022/03/10 01:45:06;;;;;;;21.50;16.80;;;2.50;99.90;;;;;;5049550;28;20878;-72
2022/03/10 01:47:33;;;;;;;19.13;16.60;;;2.60;99.90;;;;;;5049572;28;20473;-71
2022/03/10 01:50:01;;;;;;;21.37;15.67;;;2.80;99.90;;;;;;5049057;28;20465;-70
2022/03/10 01:52:28;;;;;;;20.20;15.17;;;2.80;99.90;;;;;;5049534;28;20461;-73
2022/03/10 01:54:56;;;;;;;22.73;15.60;;;2.90;99.90;;;;;;5049556;28;20995;-70
2022/03/10 01:57:24;;;;;;;23.33;16.13;;;2.90;99.90;;;;;;5047870;28;20573;-71
2022/03/10 01:59:52;;;;;;;19.93;16.07;;;2.90;99.90;;;;;;5049427;28;20481;-71
2022/03/10 02:02:20;;;;;;;19.50;15.17;;;2.90;99.90;;;;;;5049497;28;20830;-70
2022/03/10 02:04:47;;;;;;;22.50;17.07;;;3.00;99.90;;;;;;5049366;28;20794;-71
2022/03/10 02:12:40;;;;;;;22.83;17.60;;;3.20;99.90;;;;;;5049390;28;20441;-72
2022/03/10 02:18:00;;;;;;;19.50;16.43;;;2.70;99.90;;;;;;5048937;28;20624;-71
2022/03/10 02:20:27;;;;;;;22.70;15.90;;;2.80;99.90;;;;;;5049318;28;20458;-71
2022/03/10 02:22:56;;;;;;;26.90;19.13;;;2.90;99.90;;;;;;5049184;28;21013;-74
2022/03/10 02:25:24;;;;;;;26.30;17.30;;;2.90;99.90;;;;;;5048068;28;20469;-73
2022/03/10 02:27:52;;;;;;;20.60;15.33;;;2.60;99.90;;;;;;5049203;28;20462;-72
2022/03/10 02:30:20;;;;;;;21.97;14.77;;;2.60;99.90;;;;;;5048594;28;20454;-73
2022/03/10 02:32:48;;;;;;;19.23;13.47;;;2.70;99.90;;;;;;5052248;28;20484;-72
2022/03/10 02:35:16;;;;;;;20.50;13.60;;;2.70;99.90;;;;;;5052950;28;20446;-72
2022/03/10 02:37:43;;;;;;;19.73;13.23;;;2.90;99.90;;;;;;5052632;28;20489;-73
2022/03/10 02:40:12;;;;;;;17.87;13.00;;;2.90;99.90;;;;;;5052328;28;20529;-71
2022/03/10 02:42:40;;;;;;;19.30;12.70;;;2.90;99.90;;;;;;5052205;28;20485;-71
2022/03/10 02:45:09;;;;;;;15.60;11.60;;;3.10;99.90;;;;;;5052443;28;20683;-71
2022/03/10 02:47:36;;;;;;;19.40;13.50;;;3.20;99.90;;;;;;5052361;28;20470;-73
2022/03/10 02:50:06;;;;;;;18.53;12.77;;;3.00;99.90;;;;;;5052442;28;20452;-73
2022/03/10 02:52:35;;;;;;;18.70;13.80;;;3.10;99.90;;;;;;5052565;28;20452;-70
2022/03/10 02:55:03;;;;;;;18.80;12.80;;;3.10;99.90;;;;;;5052020;28;20869;-71
2022/03/10 02:57:32;;;;;;;19.97;13.63;;;3.10;99.90;;;;;;5052364;28;20494;-72
2022/03/10 02:59:59;;;;;;;16.30;12.83;;;3.00;99.90;;;;;;5052129;28;20946;-70
2022/03/10 03:02:27;;;;;;;19.80;13.67;;;3.00;99.90;;;;;;5051873;28;21013;-72
2022/03/10 03:04:54;;;;;;;20.03;13.73;;;3.00;99.90;;;;;;5052185;28;20458;-71
2022/03/10 03:07:21;;;;;;;20.77;14.20;;;3.00;99.90;;;;;;5052248;28;20477;-71
2022/03/10 03:09:48;;;;;;;19.70;13.00;;;2.90;99.90;;;;;;5052156;28;20449;-71
2022/03/10 03:12:16;;;;;;;20.50;13.33;;;2.80;99.90;;;;;;5051705;28;20454;-73
2022/03/10 03:14:44;;;;;;;20.90;12.93;;;2.70;99.90;;;;;;5052069;28;20591;-71
2022/03/10 03:17:11;;;;;;;16.73;11.50;;;2.60;99.90;;;;;;5051778;28;20484;-71
2022/03/10 03:19:38;;;;;;;21.23;13.03;;;2.60;99.90;;;;;;5051894;28;20457;-70
2022/03/10 03:22:05;;;;;;;12.60;9.00;;;2.60;99.90;;;;;;5052030;28;20453;-73
2022/03/10 03:24:33;;;;;;;15.20;9.60;;;2.60;99.90;;;;;;5051750;28;20465;-73
2022/03/10 03:27:01;;;;;;;13.77;9.43;;;2.50;99.90;;;;;;5051500;28;20484;-73
2022/03/10 03:29:28;;;;;;;15.40;9.40;;;2.50;99.90;;;;;;5051589;28;20461;-72
2022/03/10 03:31:57;;;;;;;12.53;8.97;;;2.40;99.90;;;;;;5051280;28;20939;-69
2022/03/10 03:34:24;;;;;;;14.83;10.43;;;2.40;99.90;;;;;;5051684;28;20965;-72
2022/03/10 03:36:51;;;;;;;13.50;10.00;;;2.30;99.90;;;;;;5051611;28;20482;-72
2022/03/10 03:39:18;;;;;;;14.63;9.57;;;2.30;99.90;;;;;;5051187;28;20508;-72
2022/03/10 03:41:45;;;;;;;15.13;9.83;;;2.10;99.90;;;;;;5051324;28;20492;-72
2022/03/10 03:44:12;;;;;;;14.43;9.70;;;2.10;99.90;;;;;;5051359;28;20464;-70
2022/03/10 03:46:41;;;;;;;12.17;8.63;;;2.30;99.90;;;;;;5051299;28;20474;-70
2022/03/10 03:49:09;;;;;;;11.23;7.73;;;1.90;99.90;;;;;;5051328;28;20454;-72
2022/03/10 03:51:37;;;;;;;13.33;7.83;;;1.90;99.90;;;;;;5051546;28;20457;-73
2022/03/10 03:54:05;;;;;;;9.63;6.77;;;1.80;99.90;;;;;;5050944;28;20470;-73
2022/03/10 03:56:32;;;;;;;12.03;7.20;;;1.70;99.90;;;;;;5051125;28;20539;-72
2022/03/10 03:58:59;;;;;;;12.10;7.13;;;1.80;99.90;;;;;;5051003;28;20521;-73
2022/03/10 04:01:26;;;;;;;9.27;6.37;;;1.60;99.90;;;;;;5050983;28;20452;-70
2022/03/10 04:03:54;;;;;;;14.50;8.20;;;1.60;99.90;;;;;;5051337;28;20453;-69
2022/03/10 04:06:22;;;;;;;13.40;8.07;;;1.60;99.90;;;;;;5051135;28;21112;-73
2022/03/10 04:08:49;;;;;;;11.67;7.57;;;1.60;99.90;;;;;;5050752;28;20449;-72
2022/03/10 04:11:16;;;;;;;11.30;7.87;;;1.60;99.90;;;;;;5050849;28;20441;-72
2022/03/10 04:13:44;;;;;;;11.10;7.57;;;1.50;99.90;;;;;;5050999;28;20454;-71
2022/03/10 04:16:11;;;;;;;13.63;8.23;;;1.60;99.90;;;;;;5050826;28;20505;-71
2022/03/10 04:18:38;;;;;;;11.13;6.23;;;1.60;99.90;;;;;;5050703;28;20489;-73
2022/03/10 04:21:05;;;;;;;11.17;6.97;;;1.60;99.90;;;;;;5050640;28;20456;-72
2022/03/10 04:23:34;;;;;;;9.60;6.13;;;1.60;99.90;;;;;;5050417;28;20457;-72
2022/03/10 04:26:01;;;;;;;9.80;5.63;;;1.60;99.90;;;;;;5050340;28;20496;-72
2022/03/10 04:28:28;;;;;;;10.03;6.10;;;1.60;99.90;;;;;;5050638;28;20452;-70
2022/03/10 04:30:55;;;;;;;7.80;5.50;;;1.70;99.90;;;;;;5050534;28;20822;-70
2022/03/10 04:33:23;;;;;;;9.40;6.57;;;1.70;99.90;;;;;;5050136;28;20833;-72
2022/03/10 04:35:51;;;;;;;12.03;6.20;;;1.70;99.90;;;;;;5050339;28;20485;-71
2022/03/10 04:38:18;;;;;;;10.40;7.10;;;1.70;99.90;;;;;;5050178;28;21092;-72
2022/03/10 04:40:47;;;;;;;9.80;5.90;;;1.80;99.90;;;;;;5049953;28;20466;-70
2022/03/10 04:43:16;;;;;;;11.00;6.50;;;1.70;99.90;;;;;;5050520;28;20445;-71
2022/03/10 04:45:43;;;;;;;11.43;6.40;;;1.80;99.90;;;;;;5050222;28;20456;-73
2022/03/10 04:48:10;;;;;;;11.00;6.60;;;1.80;99.90;;;;;;5050254;28;20803;-71
2022/03/10 04:50:38;;;;;;;11.40;7.00;;;1.80;99.90;;;;;;5050001;28;20794;-72
2022/03/10 04:53:05;;;;;;;11.03;8.00;;;1.60;99.90;;;;;;5050194;28;20958;-72
2022/03/10 04:55:33;;;;;;;10.20;7.17;;;1.60;99.90;;;;;;5049603;28;20556;-72
2022/03/10 04:58:01;;;;;;;11.97;7.57;;;1.60;99.90;;;;;;5050182;28;20540;-71
2022/03/10 05:00:29;;;;;;;13.63;8.87;;;1.70;99.90;;;;;;5050099;28;20567;-71
2022/03/10 05:02:56;;;;;;;10.30;6.70;;;1.60;99.90;;;;;;5049802;28;20450;-71
2022/03/10 05:05:23;;;;;;;10.90;7.63;;;1.70;99.90;;;;;;5050223;28;20493;-72
2022/03/10 05:07:50;;;;;;;11.90;7.90;;;1.70;99.90;;;;;;5050137;28;20910;-67
2022/03/10 05:10:17;;;;;;;12.10;7.10;;;1.60;99.90;;;;;;5050089;28;20450;-72
2022/03/10 05:12:49;;;;;;;10.80;7.50;;;1.70;99.90;;;;;;5050064;28;20567;-72
2022/03/10 05:15:23;;;;;;;11.10;6.70;;;1.70;99.90;;;;;;5049651;28;20461;-75
2022/03/10 05:17:52;;;;;;;12.10;8.20;;;1.80;99.90;;;;;;5049510;28;20461;-78
2022/03/10 05:20:19;;;;;;;10.30;6.80;;;1.80;99.90;;;;;;5049844;28;20457;-73
2022/03/10 05:22:48;;;;;;;12.30;7.50;;;1.90;99.90;;;;;;5049796;28;20525;-75
2022/03/10 05:25:16;;;;;;;14.17;8.40;;;1.80;99.90;;;;;;5049695;28;20454;-76
2022/03/10 05:27:44;;;;;;;12.67;7.63;;;1.80;99.90;;;;;;5048606;28;20474;-75
2022/03/10 05:30:12;;;;;;;16.97;8.33;;;1.90;99.90;;;;;;5053870;28;20516;-69
2022/03/10 05:32:42;;;;;;;12.93;8.10;;;1.90;99.90;;;;;;5049009;28;20497;-71
2022/03/10 05:35:14;;;;;;;12.23;8.40;;;1.80;99.90;;;;;;5048962;28;20453;-75
2022/03/10 05:37:43;;;;;;;12.00;7.93;;;1.90;99.90;;;;;;5051023;28;20847;-76
2022/03/10 05:40:12;;;;;;;11.53;7.70;;;2.00;99.90;;;;;;5050206;28;20481;-74
2022/03/10 05:42:39;;;;;;;10.70;7.90;;;2.10;99.90;;;;;;5050118;28;20942;-72
2022/03/10 05:45:08;;;;;;;14.13;8.97;;;2.30;99.90;;;;;;5049510;28;20457;-70
2022/03/10 05:47:35;;;;;;;14.10;8.43;;;2.30;99.90;;;;;;5049491;28;20454;-74
2022/03/10 05:50:04;;;;;;;14.07;9.17;;;2.30;99.90;;;;;;5049351;28;20778;-73
2022/03/10 05:52:32;;;;;;;15.87;9.63;;;2.30;99.90;;;;;;5049413;28;20453;-73
2022/03/10 05:54:59;;;;;;;15.10;8.33;;;2.30;99.90;;;;;;5048826;28;20465;-72
2022/03/10 05:57:27;;;;;;;12.50;9.33;;;2.40;99.90;;;;;;5049365;28;20816;-74
2022/03/10 05:59:54;;;;;;;14.87;9.30;;;2.30;99.90;;;;;;5048935;28;20496;-70
2022/03/10 06:02:21;;;;;;;13.50;10.03;;;2.20;99.90;;;;;;5049221;28;20474;-72
2022/03/10 06:04:48;;;;;;;14.10;9.20;;;2.30;99.90;;;;;;5049304;28;20793;-71
2022/03/10 06:07:17;;;;;;;13.83;10.00;;;2.40;99.90;;;;;;5051694;28;20477;-76
2022/03/10 06:09:44;;;;;;;12.97;9.10;;;2.50;99.90;;;;;;5053314;28;20495;-72
2022/03/10 06:12:11;;;;;;;12.40;7.70;;;2.50;99.90;;;;;;5053874;28;20445;-75
2022/03/10 06:14:38;;;;;;;12.37;8.87;;;2.60;99.90;;;;;;5053059;28;20450;-75
2022/03/10 06:17:05;;;;;;;13.77;8.60;;;2.50;99.90;;;;;;5052403;28;20473;-73
2022/03/10 06:19:32;;;;;;;12.80;7.87;;;2.60;99.90;;;;;;5052776;28;20853;-73
2022/03/10 06:21:59;;;;;;;14.40;8.90;;;2.70;99.90;;;;;;5052616;28;20461;-72
2022/03/10 06:24:28;;;;;;;11.67;7.33;;;2.80;99.90;;;;;;5052623;28;20445;-75
2022/03/10 06:26:55;;;;;;;9.57;6.40;;;2.80;99.60;;;;;;5052455;28;20465;-71
2022/03/10 06:29:22;;;;;;;7.07;5.63;;;2.90;97.80;;;;;;5036297;28;20450;-74
2022/03/10 06:31:51;;;;;;;8.03;5.60;;;3.00;96.70;;;;;;5032554;28;20450;-70
2022/03/10 06:34:18;;;;;;;8.97;4.87;;;3.00;96.60;;;;;;5032219;28;21014;-70
2022/03/10 06:36:45;;;;;;;9.50;6.13;;;3.00;95.80;;;;;;5036060;28;20473;-71
2022/03/10 06:39:12;;;;;;;8.60;4.57;;;3.00;95.00;;;;;;5052055;28;20497;-72
2022/03/10 06:41:41;;;;;;;8.67;5.40;;;3.00;93.00;;;;;;5052525;28;20457;-70
2022/03/10 06:44:08;;;;;;;7.40;4.40;;;3.10;93.20;;;;;;5052387;28;20507;-74
2022/03/10 06:46:35;;;;;;;9.53;5.47;;;3.30;93.60;;;;;;5051955;28;20939;-73
2022/03/10 06:49:02;;;;;;;7.20;4.30;;;3.50;90.80;;;;;;5051247;28;20949;-74
2022/03/10 06:51:30;;;;;;;9.13;4.53;;;3.60;90.80;;;;;;5040126;28;20930;-74
2022/03/10 06:53:57;;;;;;;6.27;3.90;;;3.60;90.00;;;;;;5048860;28;20457;-75
2022/03/10 06:56:24;;;;;;;6.37;3.90;;;3.60;87.30;;;;;;5045984;28;20612;-74
2022/03/10 06:58:52;;;;;;;5.83;3.63;;;3.50;86.60;;;;;;5052291;28;20486;-72
2022/03/10 07:01:20;;;;;;;6.70;4.00;;;3.40;85.50;;;;;;5047349;28;20457;-66
2022/03/10 07:03:47;;;;;;;8.80;3.73;;;3.50;89.90;;;;;;5045230;28;21145;-65
2022/03/10 07:06:14;;;;;;;7.83;3.70;;;3.50;85.50;;;;;;5051716;28;20821;-67
2022/03/10 07:08:41;;;;;;;6.20;4.17;;;3.60;86.50;;;;;;5051561;28;20860;-65
2022/03/10 07:11:08;;;;;;;8.63;4.90;;;3.50;87.40;;;;;;5051466;28;20438;-65
2022/03/10 07:13:36;;;;;;;7.60;4.03;;;3.60;86.30;;;;;;5034391;28;20458;-65
2022/03/10 07:16:05;;;;;;;8.40;4.63;;;3.60;83.00;;;;;;5050055;28;20476;-67
2022/03/10 07:18:32;;;;;;;8.40;4.50;;;3.50;84.60;;;;;;5042379;28;20511;-65
2022/03/10 07:20:59;;;;;;;8.33;5.03;;;3.70;82.90;;;;;;5049305;28;20823;-67
2022/03/10 07:23:26;;;;;;;9.67;4.77;;;3.90;83.40;;;;;;5032016;28;20504;-65
2022/03/10 07:25:53;;;;;;;8.53;4.40;;;4.00;84.70;;;;;;5033033;28;20470;-65
2022/03/10 07:28:20;;;;;;;7.57;3.80;;;4.20;81.80;;;;;;5051066;28;20992;-66
2022/03/10 07:30:47;;;;;;;4.97;3.13;;;4.30;80.00;;;;;;5050938;28;20450;-67
2022/03/10 07:33:16;;;;;;;5.90;2.90;;;4.30;77.40;;;;;;5048886;28;20474;-69
2022/03/10 07:35:43;;;;;;;5.40;3.40;;;4.50;73.00;;;;;;5051185;28;20843;-66
2022/03/10 07:38:11;;;;;;;6.57;3.40;;;4.50;72.10;;;;;;5062297;28;20460;-66
2022/03/10 07:40:38;;;;;;;7.37;3.73;;;4.40;77.30;;;;;;5052148;28;20572;-67
2022/03/10 07:43:05;;;;;;;6.80;4.00;;;4.60;76.80;;;;;;5050408;28;21015;-66
2022/03/10 07:45:33;;;;;;;7.80;4.40;;;4.70;75.70;;;;;;5050515;28;20454;-67
2022/03/10 07:48:00;;;;;;;6.17;3.50;;;4.80;74.20;;;;;;5050315;28;21116;-66
2022/03/10 07:50:28;;;;;;;6.73;3.97;;;4.70;66.50;;;;;;5051212;28;20449;-69
2022/03/10 07:52:55;;;;;;;8.73;4.33;;;4.50;67.20;;;;;;5051265;28;20544;-70
2022/03/10 07:55:22;;;;;;;7.20;4.43;;;4.50;70.90;;;;;;5050462;28;20476;-70
2022/03/10 07:57:49;;;;;;;7.77;4.10;;;4.70;71.70;;;;;;5050515;28;20458;-70
2022/03/10 08:00:17;;;;;;;7.37;4.70;;;4.90;70.40;;;;;;5050627;28;20911;-70
2022/03/10 08:02:44;;;;;;;8.50;4.33;;;5.10;69.40;;;;;;5050664;28;21034;-70
2022/03/10 08:05:11;;;;;;;6.90;4.27;;;5.40;65.50;;;;;;5048481;28;20457;-68
2022/03/10 08:07:40;;;;;;;8.60;5.03;;;5.30;67.10;;;;;;5028868;28;20467;-70
2022/03/10 08:10:08;;;;;;;6.20;4.23;;;5.20;71.70;;;;;;5041288;28;20458;-70
2022/03/10 08:12:36;;;;;;;7.00;3.93;;;4.80;68.60;;;;;;5046833;28;20557;-70
2022/03/10 08:15:05;;;;;;;6.03;3.70;;;4.80;69.10;;;;;;5050091;28;20465;-71
2022/03/10 08:17:32;;;;;;;6.47;3.83;;;4.80;69.00;;;;;;5048922;28;20481;-69
2022/03/10 08:20:00;;;;;;;7.73;4.00;;;4.70;65.70;;;;;;5050408;28;20505;-76
2022/03/10 08:22:27;;;;;;;5.90;3.77;;;4.70;63.90;;;;;;5049072;28;20457;-70
2022/03/10 08:24:56;;;;;;;9.93;4.20;;;4.50;67.20;;;;;;5029707;28;20459;-69
2022/03/10 08:27:23;;;;;;;6.67;4.20;;;4.60;67.60;;;;;;5039039;28;21122;-69
2022/03/10 08:29:50;;;;;;;7.93;4.37;;;4.70;68.90;;;;;;5048869;28;20538;-69
2022/03/10 08:32:17;;;;;;;8.43;4.70;;;4.80;67.70;;;;;;5050033;28;20489;-68
2022/03/10 08:34:44;;;;;;;7.80;4.20;;;4.50;70.30;;;;;;5050307;28;20449;-69
2022/03/10 08:37:11;;;;;;;7.70;4.73;;;4.40;73.10;;;;;;5050015;28;20469;-70
2022/03/10 08:39:39;;;;;;;6.80;4.57;;;4.40;69.90;;;;;;5049534;28;20493;-71
2022/03/10 08:42:08;;;;;;;8.43;4.43;;;4.50;69.60;;;;;;5048765;28;20460;-70
2022/03/10 08:44:35;;;;;;;8.07;4.63;;;4.60;70.10;;;;;;5048778;28;20945;-72
2022/03/10 08:47:02;;;;;;;8.83;4.90;;;4.50;74.60;;;;;;5049143;28;20485;-72
2022/03/10 08:49:29;;;;;;;12.20;5.70;;;4.50;74.80;;;;;;5048262;28;20446;-70
2022/03/10 08:51:56;;;;;;;9.13;5.13;;;4.60;72.20;;;;;;5049940;28;20450;-70
2022/03/10 08:54:23;;;;;;;12.00;5.27;;;4.70;69.80;;;;;;5049805;28;20545;-73
2022/03/10 08:56:51;;;;;;;11.00;4.80;;;4.80;72.60;;;;;;5049642;28;20509;-71
2022/03/10 08:59:20;;;;;;;10.67;5.27;;;4.80;73.10;;;;;;5049540;28;20572;-70
2022/03/10 09:01:47;;;;;;;6.93;4.40;;;5.00;70.80;;;;;;5049784;28;20840;-70
2022/03/10 09:04:16;;;;;;;4.60;3.40;;;5.40;74.60;;;;;;5048289;28;20461;-71
2022/03/10 09:06:43;;;;;;;6.03;3.40;;;5.80;69.60;;;;;;5049720;28;20506;-68
2022/03/10 09:09:10;;;;;;;6.07;3.17;;;6.10;66.60;;;;;;5049794;28;20879;-69
2022/03/10 09:11:37;;;;;;;6.20;3.80;;;6.20;60.90;;;;;;5049412;28;20480;-70
2022/03/10 09:14:05;;;;;;;5.60;3.27;;;6.10;63.60;;;;;;5049685;28;20464;-70
2022/03/10 09:16:33;;;;;;;5.93;3.83;;;5.90;63.70;;;;;;5049597;28;20863;-70
2022/03/10 09:19:01;;;;;;;8.70;4.07;;;5.80;63.00;;;;;;5049465;28;20453;-69
2022/03/10 09:21:28;;;;;;;8.60;4.00;;;5.70;61.10;;;;;;5049408;28;20504;-70
2022/03/10 09:23:55;;;;;;;8.60;3.83;;;5.60;60.00;;;;;;5049264;28;20869;-73
2022/03/10 09:26:22;;;;;;;8.67;3.10;;;5.40;61.10;;;;;;5049543;28;20497;-70
2022/03/10 09:28:50;;;;;;;6.67;3.10;;;5.40;59.60;;;;;;5049565;28;20457;-69
2022/03/10 09:31:18;;;;;;;8.23;3.07;;;5.30;58.60;;;;;;5049474;28;20442;-70
2022/03/10 09:33:46;;;;;;;9.23;4.60;;;5.10;58.10;;;;;;5048820;28;20485;-70
2022/03/10 09:36:15;;;;;;;4.87;2.23;;;5.00;57.70;;;;;;5049040;28;20470;-70
2022/03/10 09:38:42;;;;;;;5.00;2.63;;;4.90;59.20;;;;;;5049055;28;20934;-70
2022/03/10 09:41:09;;;;;;;5.13;2.90;;;4.90;58.80;;;;;;5053949;28;20497;-70
2022/03/10 09:43:38;;;;;;;6.10;3.10;;;5.10;57.00;;;;;;5056009;28;20461;-69
2022/03/10 09:46:08;;;;;;;5.93;2.93;;;5.10;57.00;;;;;;5055548;28;20474;-71
2022/03/10 09:48:36;;;;;;;5.43;3.40;;;5.10;60.00;;;;;;5055690;28;20552;-69
2022/03/10 09:51:05;;;;;;;5.43;3.43;;;5.30;58.40;;;;;;5055789;28;20848;-71
2022/03/10 09:53:34;;;;;;;8.10;4.90;;;5.70;59.70;;;;;;5055802;28;20458;-70
2022/03/10 09:56:01;;;;;;;6.10;4.17;;;5.80;55.50;;;;;;5055930;28;20492;-70
2022/03/10 09:58:28;;;;;;;5.30;3.23;;;5.70;56.20;;;;;;5055833;28;20768;-70
2022/03/10 10:01:00;;;;;;;6.10;3.30;;;5.60;56.90;;;;;;5055295;28;20493;-70
2022/03/10 10:03:27;;;;;;;5.60;2.93;;;5.50;57.20;;;;;;5055834;28;20977;-70
2022/03/10 10:05:59;;;;;;;5.17;3.03;;;5.50;57.00;;;;;;5055352;28;20488;-70
2022/03/10 10:08:30;;;;;;;5.63;3.13;;;5.50;57.10;;;;;;5055911;28;21085;-68
2022/03/10 10:10:59;;;;;;;5.50;3.07;;;5.50;55.30;;;;;;5055725;28;20450;-70
2022/03/10 10:13:29;;;;;;;6.03;2.27;;;5.40;58.30;;;;;;5055640;28;20464;-71
2022/03/10 10:15:58;;;;;;;4.90;2.87;;;5.30;55.80;;;;;;5055284;28;20485;-70
2022/03/10 10:18:25;;;;;;;4.80;2.93;;;5.20;58.20;;;;;;5055312;28;20449;-71
2022/03/10 10:20:54;;;;;;;6.07;3.43;;;5.20;56.80;;;;;;5054471;28;20860;-69
2022/03/10 10:23:23;;;;;;;5.87;3.30;;;5.10;58.30;;;;;;5054384;28;20450;-69
2022/03/10 10:25:54;;;;;;;5.87;3.50;;;5.20;58.60;;;;;;5055043;28;20469;-70
2022/03/10 10:28:27;;;;;;;6.20;3.73;;;5.40;58.20;;;;;;5055353;28;20495;-69
2022/03/10 10:31:07;;;;;;;8.10;3.50;;;5.50;59.30;;;;;;5055476;28;20461;-70
2022/03/10 10:33:35;;;;;;;7.90;4.87;;;5.50;60.00;;;;;;5055621;28;21030;-70
2022/03/10 10:36:16;;;;;;;5.77;3.17;;;5.00;61.00;;;;;;5055600;28;20799;-70
2022/03/10 10:38:45;;;;;;;5.90;3.43;;;5.00;60.80;;;;;;5055513;28;20453;-71
2022/03/10 10:41:22;;;;;;;5.47;3.30;;;5.00;58.60;;;;;;5055611;28;20563;-70
2022/03/10 10:43:51;;;;;;;6.10;3.20;;;5.10;58.30;;;;;;5055762;28;20480;-71
2022/03/10 10:46:30;;;;;;;5.67;3.27;;;5.20;59.50;;;;;;5055493;28;20573;-71
2022/03/10 10:48:59;;;;;;;5.60;3.33;;;5.30;58.00;;;;;;5055129;28;20468;-71
2022/03/10 10:51:32;;;;;;;6.53;3.70;;;5.20;57.70;;;;;;5054105;28;20461;-70
2022/03/10 10:54:00;;;;;;;5.90;3.90;;;5.20;58.20;;;;;;5051921;28;20873;-71
2022/03/10 10:56:30;;;;;;;6.37;3.47;;;5.30;57.10;;;;;;5051840;28;20568;-71
2022/03/10 10:58:57;;;;;;;6.43;3.63;;;5.30;56.40;;;;;;5052150;28;20561;-71
2022/03/10 11:01:32;;;;;;;5.10;3.20;;;5.30;55.40;;;;;;5051861;28;20584;-70
2022/03/10 11:04:00;;;;;;;5.60;3.37;;;5.40;53.10;;;;;;5052258;28;20506;-70
2022/03/10 11:06:27;;;;;;;6.47;3.50;;;5.40;53.20;;;;;;5052149;28;20462;-70
2022/03/10 11:08:55;;;;;;;7.40;4.17;;;5.30;54.70;;;;;;5051590;28;20910;-69
2022/03/10 11:11:23;;;;;;;6.23;3.40;;;5.50;55.10;;;;;;5052054;28;20461;-70
2022/03/10 11:13:52;;;;;;;5.67;3.50;;;5.60;56.70;;;;;;5051838;28;20512;-70
2022/03/10 11:16:21;;;;;;;6.67;3.50;;;5.90;55.70;;;;;;5052711;28;20831;-71
2022/03/10 11:18:51;;;;;;;7.73;3.77;;;6.00;56.30;;;;;;5051871;28;20578;-69
2022/03/10 11:21:48;;;;;;;5.73;3.47;;;5.90;57.00;;;;;;5051776;28;20482;-69
2022/03/10 11:25:06;;;;;;;6.97;3.67;;;5.90;55.70;;;;;;5051028;28;20470;-70
2022/03/10 11:27:36;;;;;;;7.83;3.67;;;6.20;55.30;;;;;;5009044;28;20475;-70
2022/03/10 11:30:07;;;;;;;6.63;3.57;;;5.90;55.50;;;;;;4992472;28;21002;-74
2022/03/10 11:32:35;;;;;;;6.03;3.93;;;6.20;57.50;;;;;;5029481;28;20481;-71
2022/03/10 11:35:03;;;;;;;4.43;2.83;;;6.20;57.30;;;;;;5051494;28;20457;-71
2022/03/10 11:37:52;;;;;;;6.60;4.03;;;6.30;55.50;;;;;;5051090;28;20474;-73
2022/03/10 11:40:39;;;;;;;7.70;4.60;;;6.00;58.20;;;;;;5051608;28;20577;-74
2022/03/10 11:43:06;;;;;;;7.87;4.63;;;5.90;59.20;;;;;;5051392;28;20466;-67
2022/03/10 11:45:36;;;;;;;6.23;3.90;;;5.70;60.70;;;;;;5048945;28;20798;-71
2022/03/10 11:48:35;;;;;;;10.20;4.90;;;5.40;60.20;;;;;;5051353;28;20457;-71
2022/03/10 11:51:19;;;;;;;7.27;4.37;;;5.40;60.20;;;;;;5051276;28;20545;-70
2022/03/10 11:54:07;;;;;;;6.87;4.10;;;5.40;62.00;;;;;;5051202;28;20539;-71
2022/03/10 11:57:03;;;;;;;10.00;4.03;;;5.90;61.60;;;;;;5051405;28;20585;-71
2022/03/10 11:59:46;;;;;;;6.30;4.17;;;6.70;62.20;;;;;;5051115;28;20458;-71
2022/03/10 12:02:33;;;;;;;9.00;4.20;;;7.40;55.80;;;;;;5050988;28;20495;-71
2022/03/10 12:05:00;;;;;;;6.10;3.93;;;8.10;56.10;;;;;;5050002;28;20453;-71
2022/03/10 12:07:31;;;;;;;6.23;3.40;;;8.50;51.40;;;;;;5050978;28;20558;-72
2022/03/10 12:10:04;;;;;;;5.50;3.40;;;8.80;50.90;;;;;;5050919;28;20453;-70
2022/03/10 12:12:37;;;;;;;6.87;4.20;;;8.70;52.00;;;;;;5050744;28;20481;-70
2022/03/10 12:15:40;;;;;;;6.33;3.70;;;8.40;51.20;;;;;;5050836;28;20453;-70
2022/03/10 12:18:16;;;;;;;5.90;3.83;;;7.90;52.50;;;;;;5008113;28;20952;-71
2022/03/10 12:20:44;;;;;;;5.70;4.00;;;7.50;52.40;;;;;;5008081;28;20644;-71
2022/03/10 12:23:13;;;;;;;5.87;3.90;;;7.30;52.10;;;;;;5030739;28;20540;-71
2022/03/10 12:25:42;;;;;;;6.77;4.47;;;7.00;54.20;;;;;;5050621;28;20450;-69
2022/03/10 12:28:11;;;;;;;6.57;3.90;;;7.20;53.60;;;;;;5049969;28;20960;-70
2022/03/10 12:30:44;;;;;;;6.70;4.47;;;7.30;54.00;;;;;;5050628;28;20442;-70
2022/03/10 12:33:11;;;;;;;12.50;5.70;;;7.40;54.90;;;;;;5050257;28;20496;-69
2022/03/10 12:35:41;;;;;;;9.37;5.63;;;7.80;56.90;;;;;;5050176;28;20980;-70
2022/03/10 12:38:10;;;;;;;8.73;5.50;;;8.40;55.60;;;;;;5050384;28;20469;-69
2022/03/10 12:40:39;;;;;;;8.90;5.40;;;8.90;54.30;;;;;;5050250;28;20492;-71
2022/03/10 12:43:09;;;;;;;9.70;5.63;;;9.40;55.30;;;;;;5050380;28;20457;-70
2022/03/10 12:45:44;;;;;;;9.93;6.37;;;9.60;52.20;;;;;;5049635;28;20527;-69
2022/03/10 12:48:15;;;;;;;10.53;5.20;;;9.70;54.10;;;;;;5049849;28;20548;-70
2022/03/10 12:50:46;;;;;;;7.00;5.10;;;10.20;53.10;;;;;;5049994;28;20534;-71
2022/03/10 12:53:15;;;;;;;10.37;5.70;;;10.30;53.10;;;;;;5050138;28;20450;-71
2022/03/10 12:55:42;;;;;;;7.47;4.67;;;10.10;50.30;;;;;;5049274;28;20545;-71
2022/03/10 12:58:09;;;;;;;10.30;4.27;;;9.60;48.40;;;;;;5050034;28;20473;-70
2022/03/10 13:00:37;;;;;;;8.33;5.60;;;9.70;46.90;;;;;;5049649;28;20481;-70
2022/03/10 13:03:05;;;;;;;7.60;4.47;;;9.90;46.00;;;;;;5049708;28;20458;-71
2022/03/10 13:05:32;;;;;;;6.97;4.80;;;10.30;46.10;;;;;;5049673;28;20938;-71